createdAt,value
2023-05-25T00:02:25.918Z,14.99
2023-05-25T00:12:32.947Z,14.82
2023-05-25T00:22:39.904Z,14.71
2023-05-25T00:32:46.458Z,14.68
2023-05-25T00:42:53.995Z,14.09
2023-05-25T00:53:00.560Z,14.34
2023-05-25T01:03:13.174Z,13.96
2023-05-25T01:13:21.505Z,14.41
2023-05-25T01:23:32.825Z,14.73
2023-05-25T01:33:39.942Z,14.92
2023-05-25T01:43:47.276Z,14.45
2023-05-25T01:54:02.257Z,14.35
2023-05-25T02:04:09.035Z,14.25
2023-05-25T02:14:15.661Z,13.76
2023-05-25T02:24:26.176Z,14.03
2023-05-25T02:34:31.772Z,14.27
2023-05-25T02:44:38.274Z,14.35
2023-05-25T02:54:44.831Z,14.39
2023-05-25T03:04:55.010Z,14.50
2023-05-25T03:15:01.569Z,14.14
2023-05-25T03:25:08.771Z,14.34
2023-05-25T03:35:15.307Z,14.23
2023-05-25T03:45:22.263Z,14.18
2023-05-25T03:55:29.710Z,14.03
2023-05-25T04:05:36.459Z,14.31
2023-05-25T04:15:43.255Z,14.03
2023-05-25T04:25:52.572Z,13.57
2023-05-25T04:36:02.087Z,13.90
2023-05-25T04:46:09.668Z,14.44
2023-05-25T04:56:18.088Z,13.88
2023-05-25T05:06:27.057Z,14.09
2023-05-25T05:16:36.298Z,14.20
2023-05-25T05:26:56.251Z,14.39
2023-05-25T05:37:04.554Z,14.64
2023-05-25T05:47:11.039Z,14.82
2023-05-25T05:57:17.493Z,14.57
2023-05-25T06:07:23.965Z,14.36
2023-05-25T06:17:31.250Z,14.32
2023-05-25T06:27:38.044Z,14.35
2023-05-25T06:37:44.551Z,14.30
2023-05-25T06:47:51.132Z,14.34
2023-05-25T06:57:57.738Z,14.45
2023-05-25T07:08:04.254Z,14.18
2023-05-25T07:18:13.682Z,14.51
2023-05-25T07:28:20.166Z,14.87
2023-05-25T07:38:26.807Z,14.61
2023-05-25T07:48:33.258Z,14.54
2023-05-25T07:58:39.863Z,15.08
2023-05-25T08:08:46.717Z,15.03
2023-05-25T08:18:53.874Z,15.17
2023-05-25T08:29:00.440Z,14.61
2023-05-25T08:39:09.350Z,14.99
2023-05-25T08:49:16.759Z,14.72
2023-05-25T08:59:27.955Z,14.92
2023-05-25T09:09:36.575Z,15.19
2023-05-25T09:19:43.416Z,14.83
2023-05-25T09:29:53.327Z,14.81
2023-05-25T09:39:59.895Z,15.27
2023-05-25T09:50:07.040Z,15.66
2023-05-25T10:00:14.254Z,15.45
2023-05-25T10:10:22.004Z,16.01
2023-05-25T10:20:30.489Z,16.02
2023-05-25T10:30:38.417Z,16.23
2023-05-25T10:40:46.109Z,16.30
2023-05-25T10:50:53.110Z,16.93
2023-05-25T11:01:09.989Z,17.05
2023-05-25T11:11:17.205Z,17.20
2023-05-25T11:21:43.774Z,17.16
2023-05-25T11:31:57.428Z,17.32
2023-05-25T11:42:06.076Z,16.96
2023-05-25T11:52:15.776Z,17.20
2023-05-25T12:02:23.576Z,17.22
2023-05-25T12:12:30.152Z,17.43
2023-05-25T12:22:36.886Z,17.58
2023-05-25T12:33:02.405Z,17.32
2023-05-25T12:43:10.375Z,17.41
2023-05-25T12:53:17.029Z,17.81
2023-05-25T13:03:23.907Z,17.51
2023-05-25T13:13:30.376Z,17.70
2023-05-25T13:23:37.094Z,17.77
2023-05-25T13:33:43.637Z,17.65
2023-05-25T13:43:50.214Z,17.11
2023-05-25T13:53:57.062Z,17.65
2023-05-25T14:04:03.748Z,17.22
2023-05-25T14:14:23.191Z,17.39
2023-05-25T14:24:37.005Z,17.07
2023-05-25T14:34:43.797Z,17.39
2023-05-25T14:44:50.314Z,17.46
2023-05-25T14:54:57.237Z,17.13
2023-05-25T15:05:03.799Z,17.86
2023-05-25T15:15:10.891Z,17.46
2023-05-25T15:25:24.560Z,17.07
2023-05-25T15:35:38.054Z,17.11
2023-05-25T15:45:44.872Z,17.04
2023-05-25T15:55:51.779Z,17.16
2023-05-25T16:05:58.516Z,17.22
2023-05-25T16:16:05.049Z,16.90
2023-05-25T16:26:11.605Z,16.97
2023-05-25T16:36:18.552Z,17.10
2023-05-25T16:46:26.923Z,17.14
2023-05-25T16:56:33.496Z,17.06
2023-05-25T17:06:40.027Z,16.68
2023-05-25T17:16:46.612Z,16.96
2023-05-25T17:26:53.185Z,16.75
2023-05-25T17:36:59.816Z,16.81
2023-05-25T17:47:09.180Z,16.97
2023-05-25T17:57:17.492Z,16.67
2023-05-25T18:07:24.097Z,16.63
2023-05-25T18:17:30.639Z,16.70
2023-05-25T18:27:35.637Z,16.15
2023-05-25T18:37:42.621Z,16.13
2023-05-25T18:47:49.144Z,16.33
2023-05-25T18:57:55.682Z,16.26
2023-05-25T19:08:02.357Z,15.84
2023-05-25T19:18:09.116Z,15.96
2023-05-25T19:28:15.720Z,15.84
2023-05-25T19:38:24.680Z,15.40
2023-05-25T19:48:33.206Z,15.59
2023-05-25T19:58:39.700Z,15.75
2023-05-25T20:08:46.337Z,15.54
2023-05-25T20:18:52.931Z,15.41
2023-05-25T20:28:59.412Z,15.03
2023-05-25T20:39:05.935Z,15.31
2023-05-25T20:49:12.495Z,15.34
2023-05-25T20:59:19.100Z,15.17
2023-05-25T21:09:25.746Z,15.64
2023-05-25T21:19:32.452Z,15.43
2023-05-25T21:29:38.946Z,15.49
2023-05-25T21:39:45.553Z,15.37
2023-05-25T21:49:52.228Z,15.60
2023-05-25T21:59:58.725Z,15.26
2023-05-25T22:10:05.331Z,15.36
2023-05-25T22:20:12.619Z,15.49
2023-05-25T22:30:19.144Z,15.51
2023-05-25T22:40:25.716Z,15.55
2023-05-25T22:50:32.229Z,15.21
2023-05-25T23:00:38.828Z,15.11
2023-05-25T23:10:45.395Z,15.35
2023-05-25T23:20:52.076Z,15.45
2023-05-25T23:30:58.573Z,15.51
2023-05-25T23:41:05.127Z,15.40
2023-05-25T23:51:12.096Z,15.29
